Raritan, Illinois
Current Conditions -  °F | °C
As of 2:15 PM on Friday 19 Dec 2014 (Local Time) from KMQB Reporting Station
Broken Clouds Broken Clouds  
Wind Chill: -1°   Ceiling: 3600
Heat Index:   Visibility: 10mi
Dew Point: -4°   Wind: 5mph
Humidity: 70%   Direction: 170°S
Pressure: 30.33"   Gusts: NA
Location:  40.7°N, 90.83°W
Report Text: KMQB 192015Z AUTO 17004KT 10SM SCT027 BKN036 BKN044 01/M04 A3033 RMK AO2 T00101039
Loading
Personal Weather Stations






























Interactive Weather Map New forecast layout! Learn more

10-Day Weather Forecast

Advertisements
Track Severe Weather on mobile